Overview Statistics Trail Chart Weather Telemetry Raw packets
 

This is the latest recevied weather packets stored in our database for station/object YREN. If no packets are shown the sender has not sent any weather packets the latest 10 day(s).

<< 27 28 29 30 31 32 33 >>
Time Temp. Humidity Pressure Rain* Wind** Luminosity Snow
1787964604 17.78° C 59% 1034.5 hPa 0 mm - - -
1787963704 17.78° C 59% 1034.5 hPa 0 mm - - -
1787962804 16.67° C 63% 1034.5 hPa 0 mm - - -
1787961904 16.67° C 63% 1034.5 hPa 0 mm - - -
1787961004 14.44° C 69% 1034.2 hPa 0 mm - - -
1787960104 14.44° C 69% 1034.2 hPa 0 mm - - -
1787959204 12.78° C 76% 1034.3 hPa 0 mm - - -
1787958304 12.78° C 76% 1034.3 hPa 0 mm - - -
1787957404 10° C 87% 1034 hPa 0 mm - - -
1787956504 10° C 87% 1034 hPa 0 mm - - -
1787955603 6.67° C 96% 1033.6 hPa 0 mm - - -
1787954703 6.67° C 96% 1033.6 hPa 0 mm - - -
1787953804 4.44° C 96% 1033.2 hPa 0 mm - - -
1787952903 4.44° C 96% 1033.2 hPa 0 mm - - -
1787952004 3.89° C 94% 1032.7 hPa 0 mm - - -
1787951104 3.89° C 94% 1032.7 hPa 0 mm - - -
1787950204 4.44° C 93% 1032.4 hPa 0 mm - - -
1787949304 4.44° C 93% 1032.4 hPa 0 mm - - -
1787948404 5° C 94% 1032.2 hPa 0 mm - - -
1787947504 5° C 94% 1032.2 hPa 0 mm - - -
1787946604 3.33° C 94% 1031.8 hPa 0 mm - - -
1787945703 3.33° C 94% 1031.8 hPa 0 mm - - -
1787944804 3.89° C 93% 1031.4 hPa 0 mm - - -
1787943904 3.89° C 93% 1031.4 hPa 0 mm - - -
1787943004 4.44° C 94% 1031.1 hPa 0 mm - - -

* Rain latest hour (hover to see other rain measurements)
** Current wind speed in m/s (hover to see current wind gust speed)